Tiempo atmosférico en la estación meteorológica de Benamejí, Córdoba (465 m.)



Fecha
DESCASC
Temp. máxima en grados centígrados (hora)
DESCASC
Temp. mínima en grados centígrados (hora)
DESCASC
Temp. media en grados centígrados
DESCASC
Racha de viento máxima en m/sg (hora)
DESCASC
Velocidad máxima media en intervalos de 10 minutos(hora)
DESCASC
Precipitaciones diarias en mm
DESCASC
Precipitaciones de 00:00 a 06:00 en mm
DESCASC
Precipitaciones de 06:00 a 12:00 en mm
DESCASC
Precipitaciones de 12:00 a 18:00 en mm
DESCASC
Precipitaciones de 18:00 a 24:00 en mm
DESCASC
12-09-2020 33.4 (16:20) 19.9 (00:00) 26.7 17.78 (12:50) 8.89 (18:50) 0 0 0 0 0
26-09-2020 25.4 (16:40) 11.3 (00:00) 18.3 8.89 (18:30) 5.56 (18:20) 0 0 0 0 0
25-09-2020 -- (--) -- (--) -- 9.44 (17:30) 5.83 (15:30) 0 0 0 0 0
24-09-2020 28.9 (15:40) 18 (00:00) 23.4 9.72 (16:40) 5.28 (16:00) 0 0 0 0 0
23-09-2020 26.5 (15:20) 16.2 (00:00) 21.4 9.44 (16:50) 5.83 (16:40) 0 0 0 0 0
22-09-2020 29.3 (16:40) 15.3 (00:00) 22.3 6.67 (17:30) 4.17 (19:00) 0 0 0 0 0
21-09-2020 27.6 (17:20) 16 (00:00) 21.8 6.67 (16:40) 3.61 (16:40) 0 0 0 0 0
20-09-2020 25 (15:50) 13.3 (00:00) 19.2 6.39 (16:20) 4.17 (17:00) 0.2 0 0.2 0 0
18-09-2020 24.9 (14:30) 18.3 (00:00) 21.6 18.61 (14:50) 12.5 (14:40) 2 0 2 0 0
17-09-2020 30.8 (15:20) 21.4 (00:00) 26.1 18.61 (19:30) 11.11 (20:00) 0 0 0 0 0
16-09-2020 29.9 (16:00) 17.4 (00:00) 23.6 10.28 (15:10) 6.67 (13:40) 0 0 0 0 0
15-09-2020 30.1 (15:40) 17.2 (00:00) 23.7 9.44 (16:10) 5.83 (18:40) 0 0 0 0 0
14-09-2020 29 (17:50) 20.7 (00:00) 24.9 11.94 (13:00) 8.33 (00:20) 0 0 0 0 0
13-09-2020 32.1 (15:50) 22 (00:00) 27 13.61 (19:40) 10 (16:40) 0 0 0 0 0
28-08-2020 32.6 (17:20) 22.3 (00:00) 27.4 11.11 (20:40) 7.22 (20:40) 0 0 0 0 0
11-09-2020 32.8 (17:10) 18.5 (00:00) 25.6 9.17 (15:40) 6.11 (18:20) 0 0 0 0 0
10-09-2020 32.3 (17:00) 17.4 (00:00) 24.8 8.61 (17:20) 5.28 (23:59) 0 0 0 0 0
09-09-2020 30.8 (18:30) 17.3 (00:00) 24 9.44 (00:20) 6.67 (00:10) 0 0 0 0 0
08-09-2020 28.1 (15:30) 20.1 (00:00) 24.1 12.5 (02:50) 8.61 (02:50) 0 0 0 0 0
07-09-2020 33.9 (17:20) 18.8 (08:20) 26.4 8.33 (00:10) 6.11 (01:30) 0 0 0 0 0
06-09-2020 31.5 (18:20) 18.8 (00:00) 25.1 10 (21:20) 6.67 (21:10) 0 0 0 0 0
05-09-2020 31.8 (15:30) 18 (00:00) 24.9 11.11 (16:50) 6.39 (16:30) 0 0 0 0 0
04-09-2020 31.6 (16:30) 18.1 (00:00) 24.9 12.22 (17:50) 8.89 (17:50) 0 0 0 0 0
03-09-2020 30.5 (16:50) 17.9 (00:00) 24.2 12.78 (15:30) 8.89 (20:10) 0 0 0 0 0
02-09-2020 31.3 (16:00) 16.5 (00:00) 23.9 11.11 (18:10) 7.5 (18:40) 0 0 0 0 0
01-09-2020 29.6 (19:10) 17 (00:00) 23.3 7.5 (02:10) 5.28 (02:20) 0 0 0 0 0
31-08-2020 29.4 (16:40) 16.7 (00:00) 23.1 12.5 (13:50) 8.33 (19:20) 0 0 0 0 0
30-08-2020 30 (16:50) 16.7 (00:00) 23.4 7.5 (17:10) 5 (23:50) 0 0 0 0 0
29-08-2020 27 (18:00) 15.6 (00:00) 21.3 10.56 (15:30) 6.39 (16:20) 0 0 0 0 0
19-09-2020 23.9 (13:40) 15.6 (00:00) 19.8 10.28 (15:20) 5.83 (15:20) 2.8 0 0 2.8 0

Gráficas

Temp. máximas Temp. mínimas Temp. medias Precipitaciones Rachas de viento máximas Velocidades máximas media en intervalos de 10 minutos

Datos horarios

Fecha y hora oficial Temperatura (ºC) Velocidad del viento (km/h) Dirección del viento Racha (km/h) Dirección de racha Precipitación (mm) Presión (hPa) Tendencia (hPa) Humedad (%)
2020-09-26 23:00:00 18.7 7 Oeste 14 Oeste 0 -- -- 38
2020-09-26 22:00:00 19.6 6 Sudoeste 12 Oeste 0 -- -- 36
2020-09-26 21:00:00 20.8 6 Oeste 16 Oeste 0 -- -- 34
2020-09-26 20:00:00 22.6 10 Noroeste 23 Noroeste 0 -- -- 31
2020-09-26 19:00:00 23.9 16 Noroeste 32 Noroeste 0 -- -- 29
2020-09-26 18:00:00 24.6 17 Noroeste 29 Noroeste 0 -- -- 26
2020-09-26 17:00:00 25.2 14 Noroeste 31 Noroeste 0 -- -- 24
2020-09-26 16:00:00 25.2 12 Oeste 24 Noroeste 0 -- -- 25
2020-09-26 15:00:00 24 12 Noroeste 26 Noroeste 0 -- -- 29
2020-09-26 14:00:00 23.4 5 Oeste 17 Oeste 0 -- -- 32
2020-09-26 13:00:00 22.3 3 Noroeste 10 Norte 0 -- -- 33
2020-09-26 12:00:00 19.9 5 Nordeste 10 Noroeste 0 -- -- 35
2020-09-26 11:00:00 18.1 4 Norte 8 Norte 0 -- -- 41
2020-09-26 10:00:00 14.3 5 Este 10 Nordeste 0 -- -- 51
2020-09-26 09:00:00 12.1 8 Nordeste 11 Nordeste 0 -- -- 55
2020-09-26 08:00:00 11.7 10 Sur 14 Sur 0 -- -- 53
2020-09-26 07:00:00 12.3 6 Sur 8 Sudeste 0 -- -- 51
2020-09-26 06:00:00 12.8 4 Nordeste 8 Oeste 0 -- -- 50
2020-09-26 05:00:00 13.5 5 Sudoeste 9 Oeste 0 -- -- 47
2020-09-26 04:00:00 14.3 3 Sudoeste 8 Oeste 0 -- -- 44
2020-09-26 03:00:00 15 2 Sudoeste 5 Noroeste 0 -- -- 43
2020-09-26 02:00:00 15.8 4 Noroeste 8 Noroeste 0 -- -- 41
2020-09-26 01:00:00 16.9 4 Norte 17 Norte 0 -- -- 38
2020-09-26 00:00:00 17.8 8 Norte 22 Norte 0 -- -- 36
2020-09-25 23:00:00 18.6 9 Norte 29 Noroeste 0 -- -- 35
2020-09-25 22:00:00 19.9 15 Noroeste 31 Noroeste 0 -- -- 33
2020-09-25 21:00:00 20.8 12 Noroeste 23 Oeste 0 -- -- 34
2020-09-25 20:00:00 22.1 14 Noroeste 30 Noroeste 0 -- -- 34
2020-09-25 19:00:00 23.4 15 Noroeste 31 Noroeste 0 -- -- 32
2020-09-25 18:00:00 23.8 17 Oeste 34 Oeste 0 -- -- 33
2020-09-25 17:00:00 23.2 14 Noroeste 34 Noroeste 0 -- -- 38
2020-09-25 16:00:00 22.7 16 Noroeste 34 Norte 0 -- -- 39
2020-09-25 15:00:00 21.8 19 Noroeste 32 Noroeste 0 -- -- 42
2020-09-25 14:00:00 21.8 15 Noroeste 31 Oeste 0 -- -- 41
2020-09-25 13:00:00 20.7 15 Noroeste 27 Noroeste 0 -- -- 45
2020-09-25 12:00:00 19.1 12 Noroeste 26 Noroeste 0 -- -- 57
2020-09-25 11:00:00 18.5 13 Noroeste 21 Noroeste 0 -- -- 53
2020-09-25 10:00:00 16.9 8 Noroeste 15 Oeste 0 -- -- 61
2020-09-25 09:00:00 16 9 Oeste 13 Oeste 0 -- -- 66
2020-09-25 08:00:00 16.9 7 Oeste 13 Noroeste 0 -- -- 67
2020-09-25 07:00:00 17.7 7 Noroeste 16 Noroeste 0 -- -- 64
2020-09-25 06:00:00 18.2 10 Noroeste 16 Noroeste 0 -- -- 68
2020-09-25 05:00:00 18.5 4 Oeste 6 Sudoeste 0 -- -- 64
2020-09-25 04:00:00 19.2 0 Calma 6 Oeste 0 -- -- 60
2020-09-25 03:00:00 19.7 4 Oeste 6 Oeste 0 -- -- 57
2020-09-25 02:00:00 20.3 3 Oeste 7 Noroeste 0 -- -- 54
2020-09-25 01:00:00 20.3 5 Noroeste 9 Noroeste 0 -- -- 54
2020-09-25 00:00:00 21.3 4 Oeste 10 Oeste 0 -- -- 48
2020-09-24 23:00:00 22.4 5 Oeste 14 Noroeste 0 -- -- 45
2020-09-24 22:00:00 23.2 8 Noroeste 15 Norte 0 -- -- 43
2020-09-24 21:00:00 24.1 10 Norte 17 Oeste 0 -- -- 39
2020-09-24 20:00:00 24.9 10 Noroeste 26 Noroeste 0 -- -- 35
2020-09-24 19:00:00 26.3 18 Noroeste 28 Noroeste 0 -- -- 31
2020-09-24 18:00:00 28 14 Noroeste 28 Oeste 0 -- -- 29
2020-09-24 17:00:00 28.8 9 Noroeste 35 Noroeste 0 -- -- 27
2020-09-24 16:00:00 28.8 19 Oeste 33 Noroeste 0 -- -- 26
2020-09-24 15:00:00 27.5 12 Oeste 21 Oeste 0 -- -- 29
2020-09-24 14:00:00 27.5 10 Noroeste 28 Noroeste 0 -- -- 34
2020-09-24 13:00:00 26.6 7 Noroeste 18 Oeste 0 -- -- 36
2020-09-24 12:00:00 24.8 4 Sur 9 Oeste 0 -- -- 45
2020-09-24 11:00:00 21.8 3 Nordeste 10 Nordeste 0 -- -- 56
2020-09-24 10:00:00 19.2 4 Nordeste 6 Este 0 -- -- 64
2020-09-24 09:00:00 18 4 Este 8 Este 0 -- -- 67
2020-09-24 08:00:00 19 7 Este 9 Este 0 -- -- 65
2020-09-24 07:00:00 18.2 6 Sudeste 8 Este 0 -- -- 67
2020-09-24 06:00:00 18.2 0 Calma 7 Este 0 -- -- 65
2020-09-24 05:00:00 18.9 5 Este 7 Este 0 -- -- 63
2020-09-24 04:00:00 19 3 Nordeste 9 Nordeste 0 -- -- 64
2020-09-24 03:00:00 18.7 6 Nordeste 10 Nordeste 0 -- -- 61
2020-09-24 02:00:00 19.9 5 Nordeste 9 Nordeste 0 -- -- 55
2020-09-24 01:00:00 20.7 3 Nordeste 5 Nordeste 0 -- -- 52
2020-09-24 00:00:00 21.3 0 Calma 5 Oeste 0 -- -- 51
2020-09-23 23:00:00 21.5 3 Sudoeste 8 Sudoeste 0 -- -- 49
2020-09-23 22:00:00 21.6 6 Sudoeste 10 Sudoeste 0 -- -- 48
2020-09-23 21:00:00 22.3 5 Sudoeste 13 Oeste 0 -- -- 45
2020-09-23 20:00:00 23.5 9 Noroeste 21 Oeste 0 -- -- 43
2020-09-23 19:00:00 25.4 15 Oeste 27 Oeste 0 -- -- 37
2020-09-23 18:00:00 25.6 18 Oeste 32 Sudoeste 0 -- -- 37
2020-09-23 17:00:00 26.3 21 Oeste 34 Sudoeste 0 -- -- 34
2020-09-23 16:00:00 25.9 17 Noroeste 32 Oeste 0 -- -- 35
2020-09-23 15:00:00 26.3 14 Oeste 30 Oeste 0 -- -- 33
2020-09-23 14:00:00 25.5 19 Oeste 28 Sudoeste 0 -- -- 31
2020-09-23 13:00:00 24.4 18 Oeste 27 Oeste 0 -- -- 30
2020-09-23 12:00:00 23.1 9 Sudoeste 22 Sur 0 -- -- 36
2020-09-23 11:00:00 20.6 4 Noroeste 9 Oeste 0 -- -- 42
2020-09-23 10:00:00 17.6 3 Este 15 Nordeste 0 -- -- 55
2020-09-23 09:00:00 16.2 11 Nordeste 13 Nordeste 0 -- -- 61
2020-09-23 08:00:00 17.7 8 Este 11 Sudeste 0 -- -- 51
2020-09-23 07:00:00 17.1 8 Sudeste 10 Sur 0 -- -- 55
2020-09-23 06:00:00 16.8 9 Sur 12 Sur 0 -- -- 55
2020-09-23 05:00:00 17.3 6 Sudeste 11 Este 0 -- -- 53
2020-09-23 04:00:00 18 8 Este 9 Este 0 -- -- 52
2020-09-23 03:00:00 18.3 4 Sudeste 6 Este 0 -- -- 52
2020-09-23 02:00:00 18.8 4 Sudoeste 18 Sudoeste 0 -- -- 50
2020-09-23 01:00:00 19.7 11 Sudoeste 19 Oeste 0 -- -- 46
2020-09-23 00:00:00 20.9 9 Oeste 19 Oeste 0 -- -- 42
2020-09-22 23:00:00 22 10 Oeste 19 Oeste 0 -- -- 38
2020-09-22 22:00:00 23.1 12 Oeste 19 Oeste 0 -- -- 31
2020-09-22 21:00:00 23.6 9 Oeste 17 Oeste 0 -- -- 27
2020-09-22 20:00:00 25.6 9 Noroeste 22 Noroeste 0 -- -- 21
2020-09-22 19:00:00 27.4 15 Noroeste 23 Noroeste 0 -- -- 18
2020-09-22 18:00:00 28.4 12 Noroeste 24 Oeste 0 -- -- 20
2020-09-22 17:00:00 29.1 8 Noroeste 23 Oeste 0 -- -- 19
2020-09-22 16:00:00 28.7 12 Sudoeste 21 Sudoeste 0 -- -- 18
2020-09-22 15:00:00 27.6 4 Sudoeste 15 Noroeste 0 -- -- 23
2020-09-22 14:00:00 26.8 7 Sudoeste 14 Oeste 0 -- -- 29
2020-09-22 13:00:00 25.4 4 Noroeste 15 Noroeste 0 -- -- 31
2020-09-22 12:00:00 23.6 6 Oeste 10 Oeste 0 -- -- 37
2020-09-22 11:00:00 20.8 0 Calma 12 Nordeste 0 -- -- 46
2020-09-22 10:00:00 17.6 6 Nordeste 9 Nordeste 0 -- -- 56
2020-09-22 09:00:00 15.8 5 Nordeste 11 Nordeste 0 -- -- 64
2020-09-22 08:00:00 15.3 9 Nordeste 13 Nordeste 0 -- -- 64
2020-09-22 07:00:00 16 10 Este 12 Este 0 -- -- 61
2020-09-22 06:00:00 17.2 5 Este 7 Este 0 -- -- 57
2020-09-22 05:00:00 18 4 Este 6 Este 0 -- -- 54
2020-09-22 04:00:00 19.7 4 Este 5 Este 0 -- -- 50
2020-09-22 03:00:00 19.6 6 Este 8 Este 0 -- -- 47
2020-09-22 02:00:00 19.9 4 Este 13 Noroeste 0 -- -- 45
2020-09-22 01:00:00 19.3 5 Nordeste 9 Nordeste 0 -- -- 44
2020-09-22 00:00:00 21.4 0 Calma 5 Este 0 -- -- 36
2020-09-21 23:00:00 22 0 Calma 5 Noroeste 0 -- -- 35
2020-09-21 22:00:00 22.5 3 Oeste 7 Noroeste 0 -- -- 34
2020-09-21 21:00:00 22.9 4 Oeste 10 Noroeste 0 -- -- 31
2020-09-21 20:00:00 24.9 8 Noroeste 15 Noroeste 0 -- -- 28
2020-09-21 19:00:00 26.7 9 Oeste 21 Noroeste 0 -- -- 27
2020-09-21 18:00:00 27.6 12 Oeste 21 Oeste 0 -- -- 25
2020-09-21 17:00:00 27.3 8 Noroeste 24 Noroeste 0 -- -- 28
2020-09-21 16:00:00 26.8 10 Oeste 22 Oeste 0 -- -- 32
2020-09-21 15:00:00 25.3 6 Norte 18 Noroeste 0 -- -- 36
2020-09-21 14:00:00 24 11 Noroeste 18 Norte 0 -- -- 34
2020-09-21 13:00:00 24.3 4 Noroeste 10 Nordeste 0 -- -- 45
2020-09-21 12:00:00 22.1 4 Norte 9 Norte 0 -- -- 54
2020-09-21 11:00:00 19.7 0 Calma 8 Nordeste 0 -- -- 62
2020-09-21 10:00:00 18.1 2 Nordeste 6 Nordeste 0 -- -- 69
2020-09-21 09:00:00 16.3 4 Este 9 Nordeste 0 -- -- 74
2020-09-21 08:00:00 16.1 0 Calma 5 Nordeste 0 -- -- 73
2020-09-21 07:00:00 16.5 2 Nordeste 6 Nordeste 0 -- -- 71
2020-09-21 06:00:00 16.8 4 Sudeste 6 Sur 0 -- -- 69
2020-09-21 05:00:00 16.7 5 Este 7 Este 0 -- -- 69
2020-09-21 04:00:00 17.7 3 Este 6 Este 0 -- -- 64
2020-09-21 03:00:00 18.3 3 Este 13 Noroeste 0 -- -- 60
2020-09-21 02:00:00 18.3 8 Norte 12 Norte 0 -- -- 65
2020-09-21 01:00:00 18.7 2 Noroeste 7 Noroeste 0 -- -- 59
2020-09-21 00:00:00 19.5 5 Nordeste 7 Nordeste 0 -- -- 55
2020-09-20 23:00:00 20.3 0 Calma 6 Este 0 -- -- 51
2020-09-20 22:00:00 20.2 0 Calma 9 Noroeste 0 -- -- 53
2020-09-20 21:00:00 21 4 Noroeste 7 Noroeste 0 -- -- 50
2020-09-20 20:00:00 22.2 4 Noroeste 16 Noroeste 0 -- -- 47
2020-09-20 19:00:00 23.3 11 Noroeste 21 Oeste 0 -- -- 43
2020-09-20 18:00:00 24.4 14 Noroeste 23 Noroeste 0 -- -- 40
2020-09-20 17:00:00 24.5 15 Noroeste 23 Noroeste 0 -- -- 37
2020-09-20 16:00:00 24.8 9 Noroeste 21 Oeste 0 -- -- 39
2020-09-20 15:00:00 23.9 8 Noroeste 19 Oeste 0 -- -- 41
2020-09-20 14:00:00 22.6 5 Noroeste 12 Noroeste 0 -- -- 61
2020-09-20 13:00:00 20.8 6 Norte 10 Norte 0 -- -- 68
2020-09-20 12:00:00 18.9 3 Nordeste 8 Norte 0 -- -- 80
2020-09-20 11:00:00 16.6 5 Nordeste 10 Nordeste 0.2 -- -- 91
2020-09-20 10:00:00 14.7 7 Nordeste 9 Nordeste 0 -- -- 92
2020-09-20 09:00:00 14.1 0 Calma 4 Este 0 -- -- 91
2020-09-20 08:00:00 13.5 0 Calma 2 Sur 0 -- -- 92
2020-09-20 07:00:00 13.8 2 Este 10 Nordeste 0 -- -- 92
2020-09-20 06:00:00 14.2 5 Nordeste 9 Nordeste 0 -- -- 91
2020-09-20 05:00:00 14.9 7 Este 10 Este 0 -- -- 89
2020-09-20 04:00:00 15 6 Este 10 Este 0 -- -- 91
2020-09-20 03:00:00 15.5 5 Este 9 Este 0 -- -- 94
2020-09-20 02:00:00 16.2 3 Nordeste 7 Nordeste 0 -- -- 94
2020-09-20 01:00:00 16.8 4 Este 5 Este 0 -- -- 94
2020-09-20 00:00:00 16.7 5 Norte 7 Noroeste 0 -- -- 94
2020-09-19 23:00:00 16.9 3 Nordeste 11 Nordeste 0 -- -- 93
2020-09-19 22:00:00 17.2 6 Nordeste 10 Nordeste 0 -- -- 91
2020-09-19 21:00:00 17.6 6 Este 10 Este 0 -- -- 92
2020-09-19 20:00:00 18.3 5 Este 8 Nordeste 0 -- -- 93
2020-09-19 19:00:00 18.4 3 Este 9 Noroeste 0 -- -- 93
2020-09-19 18:00:00 18 8 Noroeste 26 Oeste 1.6 -- -- 93
2020-09-19 17:00:00 19.4 11 Oeste 22 Noroeste 0 -- -- 82
2020-09-19 16:00:00 18.5 14 Oeste 37 Oeste 1.2 -- -- 90
2020-09-19 15:00:00 21.9 11 Noroeste 30 Oeste 0 -- -- 54
2020-09-19 14:00:00 23.3 10 Sudoeste 20 Sur 0 -- -- 41
2020-09-19 13:00:00 23.3 8 Sudoeste 18 Sudoeste 0 -- -- 43
2020-09-19 12:00:00 22.4 9 Sur 14 Sur 0 -- -- 43
2020-09-19 11:00:00 20.5 6 Sudoeste 14 Sudoeste 0 -- -- 49
2020-09-19 10:00:00 18.8 5 Este 9 Este 0 -- -- 59
2020-09-19 09:00:00 16.3 6 Nordeste 10 Sudeste 0 -- -- 71
2020-09-19 08:00:00 15.9 8 Sur 13 Sur 0 -- -- 72
2020-09-19 07:00:00 16.3 8 Sur 14 Sur 0 -- -- 69
2020-09-19 06:00:00 15.9 5 Sur 13 Sudoeste 0 -- -- 73
2020-09-19 05:00:00 16.5 9 Sudoeste 14 Sudoeste 0 -- -- 72
2020-09-19 04:00:00 17.4 2 Sudoeste 15 Sudoeste 0 -- -- 70
2020-09-19 03:00:00 17.6 11 Sur 17 Sur 0 -- -- 70
2020-09-19 02:00:00 18.2 13 Sur 19 Sudeste 0 -- -- 67
2020-09-19 01:00:00 18.1 15 Sur 20 Sur 0 -- -- 68
2020-09-19 00:00:00 18.8 11 Sudeste 19 Sur 0 -- -- 64
2020-09-18 23:00:00 19.2 10 Sur 30 Sur 0 -- -- 62
2020-09-18 22:00:00 19.4 17 Sur 23 Sur 0 -- -- 62
2020-09-18 21:00:00 20.4 16 Sur 31 Sur 0 -- -- 57
2020-09-18 20:00:00 21.5 23 Sur 46 Sur 0 -- -- 53
2020-09-18 19:00:00 23.3 29 Sur 54 Sur 0 -- -- 46
2020-09-18 18:00:00 24.1 33 Sur 49 Sur 0 -- -- 47
2020-09-18 17:00:00 22.9 26 Sur 51 Sur 0 -- -- 55
2020-09-18 16:00:00 22.7 33 Sur 59 Sur 0 -- -- 54
2020-09-18 15:00:00 23.3 29 Sudeste 67 Sur 0 -- -- 54
2020-09-18 14:00:00 24.4 35 Sur 58 Sur 0 -- -- 46
2020-09-18 13:00:00 24 38 Sur 60 Sur 0 -- -- 50
2020-09-18 12:00:00 23.2 35 Sur 56 Sur 0 -- -- 55
2020-09-18 11:00:00 22 24 Sur 45 Sudeste 0 -- -- 60
2020-09-18 10:00:00 19.2 22 Sur 38 Sur 0 -- -- 73
2020-09-18 09:00:00 18.3 14 Sudeste 22 Sudeste 2 -- -- 84
2020-09-18 08:00:00 19.7 4 Sudeste 15 Sudeste 0 -- -- 61
2020-09-18 07:00:00 19.7 6 Sudeste 23 Sudeste 0 -- -- 62
2020-09-18 06:00:00 19.6 16 Sudeste 40 Sudeste 0 -- -- 62
2020-09-18 05:00:00 19.7 27 Sur 48 Sur 0 -- -- 60
2020-09-18 04:00:00 20.2 30 Sur 50 Sur 0 -- -- 56
2020-09-18 03:00:00 21 32 Sur 65 Sur 0 -- -- 54
2020-09-18 02:00:00 21.6 36 Sur 62 Sur 0 -- -- 49
2020-09-18 01:00:00 21.9 33 Sur 49 Sur 0 -- -- 47
2020-09-18 00:00:00 22.2 30 Sur 48 Sur 0 -- -- 45
2020-09-17 23:00:00 22.3 19 Sur 42 Sudeste 0 -- -- 45
2020-09-17 22:00:00 22.7 29 Sur 53 Sur 0 -- -- 45
2020-09-17 21:00:00 23.3 31 Sur 56 Sur 0 -- -- 41
2020-09-17 20:00:00 25.1 40 Sur 67 Sur 0 -- -- 39
2020-09-17 19:00:00 27.5 30 Sur 45 Sur 0 -- -- 32
2020-09-17 18:00:00 28.1 26 Sur 51 Sur 0 -- -- 30
2020-09-17 17:00:00 28.8 29 Sur 45 Sur 0 -- -- 27
2020-09-17 16:00:00 29.1 25 Sudeste 42 Sur 0 -- -- 27
2020-09-17 15:00:00 30 22 Sudeste 39 Sudeste 0 -- -- 26
2020-09-17 14:00:00 28 22 Sur 40 Sur 0 -- -- 31
2020-09-17 13:00:00 27 28 Sur 45 Sur 0 -- -- 35
2020-09-17 12:00:00 26.3 30 Sur 47 Sur 0 -- -- 39
2020-09-17 11:00:00 23.8 15 Sur 37 Sur 0 -- -- 49
2020-09-17 10:00:00 23.5 25 Sur 41 Sur 0 -- -- 50
2020-09-17 09:00:00 22.9 13 Sudeste 23 Sudeste 0 -- -- 49
2020-09-17 08:00:00 22.5 14 Sudeste 26 Sudeste 0 -- -- 53
2020-09-17 07:00:00 22.2 20 Sur 36 Sur 0 -- -- 57
2020-09-17 06:00:00 22 21 Sudeste 35 Sudeste 0 -- -- 58
2020-09-17 05:00:00 22.2 23 Sur 36 Sur 0 -- -- 57
2020-09-17 04:00:00 21.7 19 Sur 28 Sur 0 -- -- 60
2020-09-17 03:00:00 22.4 20 Sur 29 Sur 0 -- -- 55
2020-09-17 02:00:00 23.1 8 Sur 23 Sur 0 -- -- 46
2020-09-17 01:00:00 23 14 Sur 27 Sudeste 0 -- -- 45
2020-09-17 00:00:00 22.8 15 Sudeste 35 Sudeste 0 -- -- 46
2020-09-16 23:00:00 23 10 Sur 26 Sur 0 -- -- 50
2020-09-16 22:00:00 23.7 20 Sur 29 Sur 0 -- -- 46
2020-09-16 21:00:00 25.1 21 Sur 34 Sur 0 -- -- 38
2020-09-16 20:00:00 26.2 22 Sur 32 Sur 0 -- -- 35
2020-09-16 19:00:00 27.5 17 Sur 36 Sur 0 -- -- 30
2020-09-16 18:00:00 28.9 20 Sur 33 Sur 0 -- -- 26
2020-09-16 17:00:00 29.7 10 Sudeste 32 Sur 0 -- -- 22
2020-09-16 16:00:00 29.9 19 Sur 37 Sur 0 -- -- 20
2020-09-16 15:00:00 29.5 24 Sur 35 Sur 0 -- -- 18
2020-09-16 14:00:00 28.8 21 Sur 34 Sudoeste 0 -- -- 22
2020-09-16 13:00:00 28.2 15 Sur 24 Sur 0 -- -- 20
2020-09-16 12:00:00 26.3 8 Sur 13 Sur 0 -- -- 27
2020-09-16 11:00:00 24.1 5 Nordeste 10 Norte 0 -- -- 38
2020-09-16 10:00:00 20.5 5 Nordeste 8 Nordeste 0 -- -- 48
2020-09-16 09:00:00 18.2 2 Sur 12 Este 0 -- -- 57
2020-09-16 08:00:00 17.4 9 Nordeste 12 Nordeste 0 -- -- 59
2020-09-16 07:00:00 18.5 9 Este 12 Este 0 -- -- 55
2020-09-16 06:00:00 19 6 Este 9 Este 0 -- -- 54
2020-09-16 05:00:00 18.9 5 Este 7 Este 0 -- -- 55
2020-09-16 04:00:00 19.9 3 Sudeste 8 Sudeste 0 -- -- 51
2020-09-16 03:00:00 19.9 4 Sudeste 5 Sudeste 0 -- -- 51
2020-09-16 02:00:00 20.4 0 Calma 7 Sur 0 -- -- 49
2020-09-16 01:00:00 20.8 5 Sudoeste 9 Sur 0 -- -- 49
2020-09-16 00:00:00 21.5 5 Sur 14 Sur 0 -- -- 49
2020-09-15 23:00:00 22.1 12 Sur 24 Sur 0 -- -- 49
2020-09-15 22:00:00 23.2 18 Sur 22 Sur 0 -- -- 46
2020-09-15 21:00:00 25 14 Sudoeste 21 Sudoeste 0 -- -- 39
2020-09-15 20:00:00 27.9 14 Sudoeste 27 Sudoeste 0 -- -- 30
2020-09-15 19:00:00 29.1 18 Sudoeste 31 Sur 0 -- -- 27
2020-09-15 18:00:00 29.5 18 Sudoeste 32 Sudoeste 0 -- -- 31
2020-09-15 17:00:00 29.8 18 Sudoeste 34 Sudoeste 0 -- -- 32
2020-09-15 16:00:00 29.8 18 Sudoeste 33 Sur 0 -- -- 31
2020-09-15 15:00:00 29.7 20 Sur 33 Sur 0 -- -- 27
2020-09-15 14:00:00 28.1 9 Sudoeste 18 Sudoeste 0 -- -- 35
2020-09-15 13:00:00 26.2 7 Sudoeste 19 Oeste 0 -- -- 41
2020-09-15 12:00:00 24.4 3 Noroeste 13 Noroeste 0 -- -- 47
2020-09-15 11:00:00 22.6 4 Noroeste 11 Norte 0 -- -- 55
2020-09-15 10:00:00 20.5 4 Norte 8 Nordeste 0 -- -- 63
2020-09-15 09:00:00 17.8 0 Calma 6 Nordeste 0 -- -- 69
2020-09-15 08:00:00 17.5 4 Nordeste 6 Este 0 -- -- 70
2020-09-15 07:00:00 18.3 5 Este 9 Nordeste 0 -- -- 67
2020-09-15 06:00:00 18.4 5 Este 9 Nordeste 0 -- -- 67
2020-09-15 05:00:00 18.6 3 Nordeste 8 Sudeste 0 -- -- 63
2020-09-15 04:00:00 18.5 5 Sur 9 Sur -- -- -- 63
2020-09-15 03:00:00 19.3 0 Calma 10 Sudoeste 0 -- -- 58
2020-09-15 02:00:00 20.2 4 Oeste 8 Nordeste 0 -- -- 55
2020-09-15 01:00:00 21.5 2 Nordeste 14 Sur 0 -- -- 50
2020-09-15 00:00:00 22.5 10 Sur 21 Sur 0 -- -- 47
2020-09-14 23:00:00 22.8 9 Sur 29 Sur 0 -- -- 46
2020-09-14 22:00:00 22.8 8 Sudoeste 33 Sudoeste 0 -- -- 47
2020-09-14 21:00:00 23.7 23 Sudoeste 34 Sudoeste 0 -- -- 44
2020-09-14 20:00:00 25.4 26 Sur 38 Sur 0 -- -- 38
2020-09-14 19:00:00 27.4 27 Sur 38 Sur 0 -- -- 27
2020-09-14 18:00:00 28.7 23 Sur 36 Sur 0 -- -- 23
2020-09-14 17:00:00 28.3 27 Sur 41 Sur 0 -- -- 23
2020-09-14 16:00:00 27.2 22 Sur 39 Sur 0 -- -- 26
2020-09-14 15:00:00 28.4 27 Sur 38 Sur 0 -- -- 25
2020-09-14 14:00:00 28.8 23 Sur 43 Sur 0 -- -- 24
2020-09-14 13:00:00 28.1 25 Sur 43 Sur 0 -- -- 24
2020-09-14 12:00:00 26.2 22 Sur 33 Sudeste 0 -- -- 32
2020-09-14 11:00:00 25.1 10 Sudeste 20 Sudeste 0 -- -- 36
2020-09-14 10:00:00 22.6 6 Sudeste 12 Sudeste 0 -- -- 46
2020-09-14 09:00:00 20.9 3 Oeste 5 Oeste 0 -- -- 47
2020-09-14 08:00:00 20.7 2 Noroeste 9 Noroeste 0 -- -- 46
2020-09-14 07:00:00 22 2 Noroeste 5 Noroeste 0 -- -- 41
2020-09-14 06:00:00 21.8 2 Sur 13 Sudeste 0 -- -- 42
2020-09-14 05:00:00 22 9 Sur 13 Sur 0 -- -- 41
2020-09-14 04:00:00 22.2 5 Sudeste 17 Sur 0 -- -- 40
2020-09-14 03:00:00 22 13 Sur 22 Sur 0 -- -- 45
2020-09-14 02:00:00 22.2 8 Sur 26 Sur 0 -- -- 46
2020-09-14 01:00:00 23.1 14 Sur 42 Sur 0 -- -- 45
2020-09-14 00:00:00 24.1 23 Sur 37 Sur 0 -- -- 39
2020-09-13 23:00:00 24.6 19 Sur 29 Sur 0 -- -- 36
2020-09-13 22:00:00 25 11 Sur 25 Sur 0 -- -- 33
2020-09-13 21:00:00 26 19 Sur 45 Sur 0 -- -- 30
2020-09-13 20:00:00 27.9 32 Sur 49 Sur 0 -- -- 26
2020-09-13 19:00:00 29.7 33 Sur 48 Sur 0 -- -- 23
2020-09-13 18:00:00 30.4 33 Sur 48 Sur 0 -- -- 19
2020-09-13 17:00:00 31.3 30 Sur 48 Sur 0 -- -- 16
2020-09-13 16:00:00 32 26 Sur 42 Sudeste 0 -- -- 15
2020-09-13 15:00:00 29.7 34 Sur 48 Sur 0 -- -- 17
2020-09-13 14:00:00 30.8 28 Sur 43 Sur 0 -- -- 15
2020-09-13 13:00:00 29.8 4 Sudeste 15 Sudeste 0 -- -- 17
2020-09-13 12:00:00 28.9 6 Este 15 Sudeste 0 -- -- 21
2020-09-13 11:00:00 27 7 Sur 14 Sur 0 -- -- 22
2020-09-13 10:00:00 25.3 5 Nordeste 11 Este 0 -- -- 27
2020-09-13 09:00:00 22.9 6 Sudeste 20 Sudeste 0 -- -- 29
2020-09-13 08:00:00 23 12 Sudeste 20 Sudeste 0 -- -- 28
2020-09-13 07:00:00 22 3 Sur 5 Sur 0 -- -- 32
2020-09-13 06:00:00 22.4 4 Este 17 Sudeste 0 -- -- 35
2020-09-13 05:00:00 22.7 14 Sudeste 24 Sur 0 -- -- 37
2020-09-13 04:00:00 23.2 15 Sur 21 Sur 0 -- -- 35
2020-09-13 03:00:00 22.9 11 Sur 22 Sur 0 -- -- 37
2020-09-13 02:00:00 23.7 18 Sur 25 Sudeste 0 -- -- 34
2020-09-13 01:00:00 24.8 19 Sur 27 Sur 0 -- -- 29
2020-09-13 00:00:00 25.1 9 Sur 13 Sur 0 -- -- 26
2020-09-12 23:00:00 26.4 8 Sudeste 20 Sur 0 -- -- 22
2020-09-12 22:00:00 26.1 15 Sur 33 Sur 0 -- -- 23
2020-09-12 21:00:00 26.8 21 Sur 37 Sur 0 -- -- 22
2020-09-12 20:00:00 28.7 25 Sur 45 Sur 0 -- -- 16
2020-09-12 19:00:00 31 32 Sur 47 Sur 0 -- -- 13
2020-09-12 18:00:00 32.6 31 Sur 46 Sur 0 -- -- 10
2020-09-12 17:00:00 33 28 Sur 40 Sur 0 -- -- 10
2020-09-12 16:00:00 32.9 24 Sur 39 Sur 0 -- -- 12
2020-09-12 15:00:00 32.6 21 Sur 35 Sur 0 -- -- 13
2020-09-12 14:00:00 31.8 26 Sur 39 Sur 0 -- -- 13
2020-09-12 13:00:00 31.4 23 Sur 64 Sudeste 0 -- -- 14
2020-09-12 12:00:00 29.8 4 Nordeste 11 Nordeste 0 -- -- 17
2020-09-12 11:00:00 27.6 4 Este 9 Este 0 -- -- 21
2020-09-12 10:00:00 24 0 Calma 11 Nordeste 0 -- -- 27
2020-09-12 09:00:00 21.1 9 Este 15 Este 0 -- -- 33
2020-09-12 08:00:00 20.1 12 Este 15 Este 0 -- -- 33
2020-09-12 07:00:00 20.6 6 Este 9 Este 0 -- -- 30
2020-09-12 06:00:00 21.2 7 Este 16 Sudeste 0 -- -- 29
2020-09-12 05:00:00 21 8 Sur 12 Sur 0 -- -- 29
2020-09-12 04:00:00 21 9 Sur 13 Sudeste 0 -- -- 29
2020-09-12 03:00:00 22.2 10 Sudeste 15 Sudeste 0 -- -- 29
2020-09-12 02:00:00 21.9 9 Sudeste 17 Sur 0 -- -- 27
2020-09-12 01:00:00 22.2 11 Sur 17 Sur 0 -- -- 29
2020-09-12 00:00:00 22.1 10 Sur 13 Sur 0 -- -- 31
2020-09-11 23:00:00 22.9 10 Sur 14 Sur 0 -- -- 29
2020-09-11 22:00:00 24.4 8 Sur 14 Sudoeste 0 -- -- 24
2020-09-11 21:00:00 26.4 11 Sudoeste 19 Sudoeste 0 -- -- 21
2020-09-11 20:00:00 28.1 15 Sudoeste 31 Sur 0 -- -- 19
2020-09-11 19:00:00 29.7 19 Sur 32 Sur 0 -- -- 19
2020-09-11 18:00:00 31 18 Sur 32 Sur 0 -- -- 16
2020-09-11 17:00:00 32.7 16 Sur 32 Sur 0 -- -- 15
2020-09-11 16:00:00 32.5 15 Sur 33 Sur 0 -- -- 16
2020-09-11 15:00:00 32.2 18 Sur 27 Sudoeste 0 -- -- 16
2020-09-11 14:00:00 31.5 13 Sur 25 Sudoeste 0 -- -- 16
2020-09-11 13:00:00 29.8 8 Sudoeste 16 Sur 0 -- -- 19
2020-09-11 12:00:00 28.1 5 Nordeste 10 Este 0 -- -- 23
2020-09-11 11:00:00 23.7 6 Nordeste 9 Nordeste 0 -- -- 32
2020-09-11 10:00:00 22.3 7 Sur 14 Sur 0 -- -- 37
2020-09-11 09:00:00 19.2 10 Sur 13 Sudeste 0 -- -- 44
2020-09-11 08:00:00 18.8 6 Sudeste 9 Sur 0 -- -- 42
2020-09-11 07:00:00 18.6 8 Este 13 Sur 0 -- -- 43
2020-09-11 06:00:00 18.9 8 Sur 15 Sur 0 -- -- 41
2020-09-11 05:00:00 19.4 10 Sur 16 Sur 0 -- -- 40
2020-09-11 04:00:00 19.9 12 Sur 18 Sudeste 0 -- -- 39
2020-09-11 03:00:00 20.2 13 Sur 15 Sur 0 -- -- 38
2020-09-11 02:00:00 20.8 7 Sudoeste 22 Sur 0 -- -- 36
2020-09-11 01:00:00 21.7 17 Sur 24 Sur 0 -- -- 33
2020-09-11 00:00:00 22.7 19 Sur 27 Sur 0 -- -- 31
2020-09-10 23:00:00 23.7 17 Sur 23 Sur 0 -- -- 30
2020-09-10 22:00:00 25.4 15 Sur 21 Sur 0 -- -- 26
2020-09-10 21:00:00 28.4 3 Oeste 13 Noroeste 0 -- -- 15
2020-09-10 20:00:00 30.7 8 Noroeste 22 Norte 0 -- -- 13
2020-09-10 19:00:00 31.4 11 Noroeste 26 Noroeste 0 -- -- 12
2020-09-10 18:00:00 32.1 11 Noroeste 31 Noroeste 0 -- -- 13
2020-09-10 17:00:00 32.3 7 Noroeste 23 Norte 0 -- -- 14
2020-09-10 16:00:00 31.4 5 Nordeste 24 Norte 0 -- -- 15
2020-09-10 15:00:00 31 6 Sur 19 Norte 0 -- -- 16
2020-09-10 14:00:00 30.2 5 Noroeste 21 Norte 0 -- -- 19
2020-09-10 13:00:00 28.9 5 Sudeste 10 Norte 0 -- -- 22
2020-09-10 12:00:00 26.5 4 Nordeste 12 Nordeste 0 -- -- 25
2020-09-10 11:00:00 24.1 4 Norte 8 Nordeste 0 -- -- 34
2020-09-10 10:00:00 21.1 4 Nordeste 6 Nordeste 0 -- -- 41
2020-09-10 09:00:00 18.5 4 Nordeste 9 Este 0 -- -- 46
2020-09-10 08:00:00 17.9 6 Este 10 Este 0 -- -- 43
2020-09-10 07:00:00 17.4 7 Sur 11 Sur 0 -- -- 42
2020-09-10 06:00:00 18.2 5 Sur 10 Este 0 -- -- 43
2020-09-10 05:00:00 18.4 10 Sur 16 Sur 0 -- -- 42
2020-09-10 04:00:00 18.4 12 Sur 21 Sur 0 -- -- 41
2020-09-10 03:00:00 18.8 13 Sur 21 Sur 0 -- -- 39
2020-09-10 02:00:00 19.6 10 Sur 22 Sur 0 -- -- 39
2020-09-10 01:00:00 20.3 16 Sur 24 Sur 0 -- -- 37
2020-09-10 00:00:00 21.3 18 Sur 27 Sur 0 -- -- 34
2020-09-09 23:00:00 22.2 17 Sur 22 Sur 0 -- -- 31
2020-09-09 22:00:00 23.5 15 Sur 21 Sur 0 -- -- 29
2020-09-09 21:00:00 25.7 17 Sur 23 Sur 0 -- -- 26
2020-09-09 20:00:00 29.3 8 Noroeste 22 Oeste 0 -- -- 20
2020-09-09 19:00:00 30.3 10 Sudoeste 21 Oeste 0 -- -- 19
2020-09-09 18:00:00 30.7 12 Oeste 24 Sudoeste 0 -- -- 20
2020-09-09 17:00:00 30.7 10 Sudoeste 26 Sudoeste 0 -- -- 20
2020-09-09 16:00:00 30 6 Sudoeste 18 Sudoeste 0 -- -- 21
2020-09-09 15:00:00 29.5 10 Oeste 18 Oeste 0 -- -- 22
2020-09-09 14:00:00 28.3 5 Oeste 15 Nordeste 0 -- -- 25
2020-09-09 13:00:00 26.9 7 Noroeste 16 Noroeste 0 -- -- 29
2020-09-09 12:00:00 25.5 5 Sudeste 14 Sudeste 0 -- -- 32
2020-09-09 11:00:00 23.2 4 Norte 10 Este 0 -- -- 45
2020-09-09 10:00:00 21.4 3 Nordeste 7 Sudeste 0 -- -- 53
2020-09-09 09:00:00 18 5 Sur 6 Sur 0 -- -- 70
2020-09-09 08:00:00 17.6 0 Calma 7 Este 0 -- -- 65
2020-09-09 07:00:00 18.7 5 Este 13 Sudeste 0 -- -- 64
2020-09-09 06:00:00 18.8 12 Sudeste 21 Sudeste 0 -- -- 64
2020-09-09 05:00:00 19.3 15 Sudeste 23 Sudeste 0 -- -- 62
2020-09-09 04:00:00 19.5 15 Sudeste 25 Sudeste 0 -- -- 61
2020-09-09 03:00:00 19.9 15 Sudeste 25 Sur 0 -- -- 58
2020-09-09 02:00:00 20.1 14 Sudeste 30 Sur 0 -- -- 57
2020-09-09 01:00:00 20.2 19 Sudeste 34 Sudeste 0 -- -- 59
2020-09-09 00:00:00 20.1 22 Sur 40 Sur 0 -- -- 59
2020-09-08 23:00:00 20.5 23 Sur 39 Sudeste 0 -- -- 52
2020-09-08 22:00:00 21.4 24 Sur 35 Sur 0 -- -- 44
2020-09-08 21:00:00 22.2 24 Sur 40 Sur 0 -- -- 42
2020-09-08 20:00:00 24.7 27 Sur 42 Sur 0 -- -- 35
2020-09-08 19:00:00 26.5 28 Sur 41 Sur 0 -- -- 31
2020-09-08 18:00:00 27.7 24 Sur 36 Sur 0 -- -- 30
2020-09-08 17:00:00 28 26 Sur 42 Sur 0 -- -- 29
2020-09-08 16:00:00 27.7 27 Sur 40 Sur 0 -- -- 29
2020-09-08 15:00:00 27.9 22 Sur 41 Sur 0 -- -- 27
2020-09-08 14:00:00 27 26 Sur 43 Sur 0 -- -- 29
2020-09-08 13:00:00 26.2 28 Sur 42 Sur 0 -- -- 33
2020-09-08 12:00:00 25.6 27 Sur 38 Sur 0 -- -- 34
2020-09-08 11:00:00 24.7 20 Sur 32 Sudeste 0 -- -- 38
2020-09-08 10:00:00 23.3 17 Sur 28 Sudeste 0 -- -- 41
2020-09-08 09:00:00 21.2 14 Sur 22 Sur 0 -- -- 52
2020-09-08 08:00:00 20.5 7 Sudeste 19 Sudeste 0 -- -- 59
2020-09-08 07:00:00 20.8 14 Sudeste 27 Sur 0 -- -- 61
2020-09-08 06:00:00 21 17 Sur 37 Sur 0 -- -- 62
2020-09-08 05:00:00 21.2 19 Sur 38 Sudeste 0 -- -- 59
2020-09-08 04:00:00 21.3 26 Sur 45 Sur 0 -- -- 58
2020-09-08 03:00:00 21.8 31 Sur 45 Sur 0 -- -- 57
2020-09-08 02:00:00 22.1 25 Sur 34 Sudoeste 0 -- -- 53
2020-09-08 01:00:00 23.6 20 Sudoeste 29 Sur 0 -- -- 47
2020-09-08 00:00:00 25.2 9 Sudeste 16 Sudoeste 0 -- -- 36
2020-09-07 23:00:00 27 13 Sudoeste 18 Sudoeste 0 -- -- 28
2020-09-07 22:00:00 28.3 12 Oeste 24 Oeste 0 -- -- 21
2020-09-07 21:00:00 30.4 3 Oeste 14 Noroeste 0 -- -- 18
2020-09-07 20:00:00 32.3 10 Noroeste 21 Oeste 0 -- -- 15
2020-09-07 19:00:00 33.5 10 Noroeste 20 Noroeste 0 -- -- 14
2020-09-07 18:00:00 33.1 9 Noroeste 20 Noroeste 0 -- -- 14
2020-09-07 17:00:00 32.7 15 Noroeste 24 Noroeste 0 -- -- 17
2020-09-07 16:00:00 33.1 13 Noroeste 26 Noroeste 0 -- -- 17
2020-09-07 15:00:00 32 11 Noroeste 19 Noroeste 0 -- -- 21
2020-09-07 14:00:00 31.4 10 Oeste 19 Oeste 0 -- -- 24
2020-09-07 13:00:00 29.7 6 Sudoeste 16 Oeste 0 -- -- 28
2020-09-07 12:00:00 27.6 5 Noroeste 13 Noroeste 0 -- -- 34
2020-09-07 11:00:00 25.7 4 Norte 8 Nordeste 0 -- -- 40
2020-09-07 10:00:00 22.3 0 Calma 8 Nordeste 0 -- -- 52
2020-09-07 09:00:00 19.6 0 Calma 5 Norte 0 -- -- 63
2020-09-07 08:00:00 19.2 0 Calma 17 Sur 0 -- -- 63
2020-09-07 07:00:00 19.8 10 Sudeste 15 Sudeste 0 -- -- 62
2020-09-07 06:00:00 20 6 Sudeste 14 Sudeste 0 -- -- 60
2020-09-07 05:00:00 19.5 6 Sur 11 Sur 0 -- -- 63
2020-09-07 04:00:00 19.9 8 Sudeste 14 Sudeste 0 -- -- 60
2020-09-07 03:00:00 20.1 9 Sur 24 Sur 0 -- -- 60
2020-09-07 02:00:00 20.9 17 Sur 29 Sur 0 -- -- 59
2020-09-07 01:00:00 20.9 18 Sur 30 Sudoeste 0 -- -- 59
2020-09-07 00:00:00 22 17 Sudoeste 29 Sur 0 -- -- 55
2020-09-06 23:00:00 22.8 24 Sur 33 Sur 0 -- -- 52
2020-09-06 22:00:00 23.8 20 Sur 36 Sur 0 -- -- 48
2020-09-06 21:00:00 25.6 23 Sur 32 Sur 0 -- -- 41
2020-09-06 20:00:00 29.3 18 Sur 24 Sur 0 -- -- 29
2020-09-06 19:00:00 31.1 12 Sudoeste 24 Sudoeste 0 -- -- 21
2020-09-06 18:00:00 31.3 17 Sur 32 Sudoeste 0 -- -- 24
2020-09-06 17:00:00 31.2 22 Sudoeste 33 Sudoeste 0 -- -- 26
2020-09-06 16:00:00 31.1 18 Sudoeste 30 Sur 0 -- -- 26
2020-09-06 15:00:00 31.2 18 Sur 28 Sur 0 -- -- 26
2020-09-06 14:00:00 30.5 10 Sur 25 Sur 0 -- -- 27
2020-09-06 13:00:00 29.5 12 Sur 23 Sudoeste 0 -- -- 27
2020-09-06 12:00:00 28.1 12 Sur 22 Sudeste 0 -- -- 30
2020-09-06 11:00:00 25.2 4 Oeste 8 Sudoeste 0 -- -- 41
2020-09-06 10:00:00 22.8 2 Sudeste 12 Sur 0 -- -- 51
2020-09-06 09:00:00 19.8 10 Sur 14 Sur 0 -- -- 64
2020-09-06 08:00:00 18.8 10 Sur 13 Sur 0 -- -- 65
2020-09-06 07:00:00 19.2 10 Sur 13 Sur 0 -- -- 64
2020-09-06 06:00:00 19.7 8 Sur 17 Sur 0 -- -- 62
2020-09-06 05:00:00 19.5 13 Sur 15 Sur 0 -- -- 64
2020-09-06 04:00:00 20.6 7 Sur 16 Sudeste 0 -- -- 57
2020-09-06 03:00:00 21.3 17 Sur 30 Sur 0 -- -- 56
2020-09-06 02:00:00 21.8 15 Sur 28 Sudeste 0 -- -- 51
2020-09-06 01:00:00 22.9 20 Sur 28 Sur 0 -- -- 36
2020-09-06 00:00:00 22.4 19 Sur 27 Sur 0 -- -- 44
2020-09-05 23:00:00 22.9 19 Sur 28 Sur 0 -- -- 45
2020-09-05 22:00:00 24 21 Sur 31 Sur 0 -- -- 33
2020-09-05 21:00:00 25.7 19 Sur 28 Sudoeste 0 -- -- 26
2020-09-05 20:00:00 28.9 18 Sudoeste 27 Sur 0 -- -- 26
2020-09-05 19:00:00 30.9 16 Sudoeste 30 Sudoeste 0 -- -- 24
2020-09-05 18:00:00 31.3 22 Sudoeste 32 Sudoeste 0 -- -- 23
2020-09-05 17:00:00 31.5 22 Sudoeste 40 Sudoeste 0 -- -- 23
2020-09-05 16:00:00 31.5 17 Sudoeste 30 Sudoeste 0 -- -- 25
2020-09-05 15:00:00 31.6 8 Sur 23 Sur 0 -- -- 23
2020-09-05 14:00:00 30.3 13 Sur 25 Sur 0 -- -- 24
2020-09-05 13:00:00 28.7 13 Sur 24 Sur 0 -- -- 29
2020-09-05 12:00:00 27 6 Sudeste 25 Sudeste 0 -- -- 38
2020-09-05 11:00:00 25.5 5 Sur 13 Sur 0 -- -- 42
2020-09-05 10:00:00 22.9 10 Sur 17 Sur 0 -- -- 50
2020-09-05 09:00:00 19.3 6 Sudeste 9 Sudeste 0 -- -- 59
2020-09-05 08:00:00 18.9 9 Sudeste 17 Sudeste 0 -- -- 54
2020-09-05 07:00:00 18.7 12 Sudeste 17 Este 0 -- -- 55
2020-09-05 06:00:00 18.1 9 Sur 15 Sur 0 -- -- 67
2020-09-05 05:00:00 18.5 10 Sur 16 Sur 0 -- -- 67
2020-09-05 04:00:00 18.7 9 Sur 18 Sur 0 -- -- 66
2020-09-05 03:00:00 19.5 13 Sur 22 Sur 0 -- -- 60
2020-09-05 02:00:00 21.1 16 Sudeste 28 Sur 0 -- -- 51
2020-09-05 01:00:00 21.5 18 Sur 28 Sur 0 -- -- 47
2020-09-05 00:00:00 22.1 17 Sur 27 Sur 0 -- -- 43
2020-09-04 23:00:00 22 17 Sur 27 Sur 0 -- -- 44
2020-09-04 22:00:00 22.5 14 Sur 27 Sur 0 -- -- 44
2020-09-04 21:00:00 24 21 Sur 35 Sudoeste 0 -- -- 38
2020-09-04 20:00:00 26.4 27 Sur 42 Sudoeste 0 -- -- 31
2020-09-04 19:00:00 28.7 30 Sur 41 Sur 0 -- -- 25
2020-09-04 18:00:00 29.7 31 Sur 44 Sudoeste 0 -- -- 21
2020-09-04 17:00:00 31.3 23 Sur 35 Sur 0 -- -- 13
2020-09-04 16:00:00 31.3 26 Sur 35 Sur 0 -- -- 9
2020-09-04 15:00:00 31 19 Sur 40 Sur 0 -- -- 9
2020-09-04 14:00:00 30.3 23 Sur 37 Sur 0 -- -- 8
2020-09-04 13:00:00 28.4 8 Sudeste 20 Sudoeste 0 -- -- 18
2020-09-04 12:00:00 27 4 Norte 12 Norte 0 -- -- 23
2020-09-04 11:00:00 25.4 3 Sudeste 7 Oeste 0 -- -- 29
2020-09-04 10:00:00 23.4 2 Sur 13 Sudeste 0 -- -- 34
2020-09-04 09:00:00 20.8 10 Sudeste 18 Sudeste 0 -- -- 41
2020-09-04 08:00:00 18.3 11 Sudeste 17 Sur 0 -- -- 48
2020-09-04 07:00:00 18.9 9 Sudeste 17 Sudeste 0 -- -- 49
2020-09-04 06:00:00 19.1 10 Sudeste 17 Sudeste 0 -- -- 47
2020-09-04 05:00:00 19.9 9 Sudeste 14 Sudeste 0 -- -- 49
2020-09-04 04:00:00 19.9 8 Sur 12 Este 0 -- -- 50
2020-09-04 03:00:00 21.6 9 Sudeste 18 Sudeste 0 -- -- 47
2020-09-04 02:00:00 22.2 10 Sudeste 22 Sur 0 -- -- 44
2020-09-04 01:00:00 22.8 11 Sudeste 17 Sur 0 -- -- 36
2020-09-04 00:00:00 23 10 Sur 18 Sur 0 -- -- 31
2020-09-03 23:00:00 23.5 13 Sur 31 Sur 0 -- -- 33
2020-09-03 22:00:00 24.1 23 Sur 40 Sur 0 -- -- 36
2020-09-03 21:00:00 25.1 24 Sur 46 Sur 0 -- -- 32
2020-09-03 20:00:00 27.1 31 Sur 45 Sur 0 -- -- 24
2020-09-03 19:00:00 28.9 28 Sur 41 Sur 0 -- -- 20
2020-09-03 18:00:00 30 24 Sur 46 Sur 0 -- -- 18
2020-09-03 17:00:00 30.3 29 Sur 41 Sur 0 -- -- 17
2020-09-03 16:00:00 30.2 31 Sur 46 Sur 0 -- -- 18
2020-09-03 15:00:00 30 28 Sur 42 Sur 0 -- -- 20
2020-09-03 14:00:00 29.5 22 Sur 41 Sur 0 -- -- 22
2020-09-03 13:00:00 28.4 25 Sur 37 Sur 0 -- -- 25
2020-09-03 12:00:00 27.4 9 Sudeste 18 Sur 0 -- -- 28
2020-09-03 11:00:00 24.9 4 Norte 10 Norte 0 -- -- 35
2020-09-03 10:00:00 23.3 5 Este 10 Nordeste 0 -- -- 39
2020-09-03 09:00:00 19.4 5 Sudeste 8 Sudeste 0 -- -- 51
2020-09-03 08:00:00 18.5 5 Este 10 Sudeste 0 -- -- 50
2020-09-03 07:00:00 17.9 8 Sur 15 Sudeste 0 -- -- 58
2020-09-03 06:00:00 18.4 10 Sudeste 15 Sur 0 -- -- 46
2020-09-03 05:00:00 20 6 Sudeste 9 Sudeste 0 -- -- 37
2020-09-03 04:00:00 20 8 Sudeste 15 Sudeste 0 -- -- 36
2020-09-03 03:00:00 19.4 10 Sur 15 Sur 0 -- -- 45
2020-09-03 02:00:00 19.5 9 Sur 16 Sudeste 0 -- -- 42
2020-09-03 01:00:00 20.4 10 Sur 16 Sur 0 -- -- 39
2020-09-03 00:00:00 21.9 7 Sudeste 24 Sur 0 -- -- 32
2020-09-02 23:00:00 22.2 15 Sur 31 Sur 0 -- -- 34
2020-09-02 22:00:00 23.3 24 Sur 33 Sur 0 -- -- 31
2020-09-02 21:00:00 24.9 18 Sur 29 Sudoeste 0 -- -- 28
2020-09-02 20:00:00 27 21 Sur 35 Sudoeste 0 -- -- 24
2020-09-02 19:00:00 28.4 25 Sur 40 Sudoeste 0 -- -- 23
2020-09-02 18:00:00 29.4 24 Sudoeste 39 Sudoeste 0 -- -- 22
2020-09-02 17:00:00 30.5 22 Sur 39 Sudoeste 0 -- -- 18
2020-09-02 16:00:00 31.3 12 Sudoeste 23 Sur 0 -- -- 14
2020-09-02 15:00:00 30.7 9 Sudoeste 20 Oeste 0 -- -- 14
2020-09-02 14:00:00 29 6 Oeste 18 Oeste 0 -- -- 15
2020-09-02 13:00:00 28.1 6 Sudoeste 22 Oeste 0 -- -- 17
2020-09-02 12:00:00 26.4 4 Norte 9 Noroeste 0 -- -- 21
2020-09-02 11:00:00 23.7 3 Oeste 7 Oeste 0 -- -- 28
2020-09-02 10:00:00 20.4 3 Sudoeste 7 Este 0 -- -- 35
2020-09-02 09:00:00 17.4 4 Nordeste 5 Nordeste 0 -- -- 44
2020-09-02 08:00:00 16.7 4 Nordeste 7 Este 0 -- -- 44
2020-09-02 07:00:00 16.7 5 Sudeste 13 Sudeste 0 -- -- 45
2020-09-02 06:00:00 17.2 8 Sudeste 13 Sudeste 0 -- -- 43
2020-09-02 05:00:00 17.8 6 Sudeste 9 Sur 0 -- -- 42
2020-09-02 04:00:00 19.5 3 Sudeste 6 Este 0 -- -- 38
2020-09-02 03:00:00 19.4 6 Nordeste 9 Sur 0 -- -- 39
2020-09-02 02:00:00 20 8 Sudeste 12 Sudeste 0 -- -- 37
2020-09-02 01:00:00 20.3 9 Sudeste 12 Sudeste 0 -- -- 36
2020-09-02 00:00:00 20.8 5 Sudoeste 16 Sudoeste 0 -- -- 32
2020-09-01 23:00:00 22 12 Sudoeste 21 Sudoeste 0 -- -- 30
2020-09-01 22:00:00 23.5 6 Sur 10 Sudoeste 0 -- -- 27
2020-09-01 21:00:00 25.9 5 Noroeste 14 Noroeste 0 -- -- 20
2020-09-01 20:00:00 28.5 5 Noroeste 19 Noroeste 0 -- -- 16
2020-09-01 19:00:00 29.2 10 Noroeste 18 Oeste 0 -- -- 17
2020-09-01 18:00:00 29.1 4 Este 18 Sur 0 -- -- 17
2020-09-01 17:00:00 28.6 10 Sur 19 Sudoeste 0 -- -- 17
2020-09-01 16:00:00 27.2 11 Sudoeste 19 Sudoeste 0 -- -- 21
2020-09-01 15:00:00 26.4 10 Sudoeste 21 Sur 0 -- -- 23
2020-09-01 14:00:00 25.3 10 Sudoeste 19 Sudoeste 0 -- -- 26
2020-09-01 13:00:00 24.3 6 Sur 18 Sur 0 -- -- 27
2020-09-01 12:00:00 23.5 10 Sur 16 Sur 0 -- -- 27
2020-09-01 11:00:00 22 6 Sur 12 Sur 0 -- -- 34
2020-09-01 10:00:00 19.3 9 Sur 13 Sur 0 -- -- 49
2020-09-01 09:00:00 18 0 Calma 6 Sudeste 0 -- -- 49
2020-09-01 08:00:00 17.6 5 Sudeste 8 Sudeste 0 -- -- 52
2020-09-01 07:00:00 17 5 Nordeste 6 Nordeste 0 -- -- 55
2020-09-01 06:00:00 18.1 0 Calma 4 Oeste 0 -- -- 49
2020-09-01 05:00:00 18.1 3 Oeste 5 Oeste 0 -- -- 48
2020-09-01 04:00:00 19.1 3 Norte 10 Sudeste 0 -- -- 46
2020-09-01 03:00:00 19.9 10 Sudeste 27 Sur 0 -- -- 43
2020-09-01 02:00:00 19.8 18 Sur 23 Sur 0 -- -- 51
2020-09-01 01:00:00 19.5 17 Sur 22 Sur 0 -- -- 50
2020-09-01 00:00:00 20 10 Sur 20 Sur 0 -- -- 46
2020-08-31 23:00:00 20.6 14 Sur 21 Sur 0 -- -- 46
2020-08-31 22:00:00 21.9 15 Sur 28 Sudoeste 0 -- -- 40
2020-08-31 21:00:00 23.2 23 Sudoeste 35 Sudoeste 0 -- -- 36
2020-08-31 20:00:00 25.8 24 Sudoeste 42 Sur 0 -- -- 26
2020-08-31 19:00:00 27.9 24 Sur 34 Sur 0 -- -- 21
2020-08-31 18:00:00 28.7 23 Sur 40 Sur 0 -- -- 19
2020-08-31 17:00:00 29.2 21 Sur 34 Sur 0 -- -- 18
2020-08-31 16:00:00 29.2 24 Sur 38 Sudeste 0 -- -- 17
2020-08-31 15:00:00 28.7 22 Sur 35 Sudoeste 0 -- -- 18
2020-08-31 14:00:00 28.2 13 Sudeste 45 Sudeste 0 -- -- 20
2020-08-31 13:00:00 26.8 22 Sur 36 Sur 0 -- -- 25
2020-08-31 12:00:00 25.9 9 Sudeste 17 Este 0 -- -- 32
2020-08-31 11:00:00 24.1 6 Sudeste 16 Este 0 -- -- 37
2020-08-31 10:00:00 21.9 5 Sudeste 14 Este 0 -- -- 41
2020-08-31 09:00:00 18.9 7 Este 17 Este 0 -- -- 48
2020-08-31 08:00:00 17.1 15 Sudeste 22 Este 0 -- -- 53
2020-08-31 07:00:00 17.1 11 Este 17 Este 0 -- -- 53
2020-08-31 06:00:00 17.5 8 Este 12 Sudeste 0 -- -- 51
2020-08-31 05:00:00 18.4 10 Sudeste 19 Sudeste 0 -- -- 55
2020-08-31 04:00:00 18.6 12 Sudeste 19 Sudeste 0 -- -- 54
2020-08-31 03:00:00 18.7 5 Este 10 Sur 0 -- -- 42
2020-08-31 02:00:00 18.3 9 Sur 14 Sur 0 -- -- 43
2020-08-31 01:00:00 19.2 10 Sur 22 Sur 0 -- -- 38
2020-08-31 00:00:00 19.8 17 Sur 23 Sur 0 -- -- 30
2020-08-30 23:00:00 20.8 15 Sur 21 Sur 0 -- -- 28
2020-08-30 22:00:00 22.6 13 Sur 23 Sur 0 -- -- 25
2020-08-30 21:00:00 24.9 17 Sur 23 Sur 0 -- -- 21
2020-08-30 20:00:00 27.8 10 Noroeste 24 Oeste 0 -- -- 8
2020-08-30 19:00:00 29.1 10 Norte 25 Noroeste 0 -- -- 7
2020-08-30 18:00:00 29.4 13 Oeste 27 Norte 0 -- -- 15
2020-08-30 17:00:00 29.5 9 Norte 24 Oeste 0 -- -- 10
2020-08-30 16:00:00 28.9 9 Oeste 26 Sudoeste 0 -- -- 9
2020-08-30 15:00:00 28.4 16 Sudoeste 24 Sur 0 -- -- 10
2020-08-30 14:00:00 27.6 13 Sur 21 Sur 0 -- -- 11
2020-08-30 13:00:00 27.2 7 Sudeste 16 Sudeste 0 -- -- 11
2020-08-30 12:00:00 24.6 3 Este 8 Nordeste 0 -- -- 14
2020-08-30 11:00:00 20.6 2 Norte 6 Norte 0 -- -- 22
2020-08-30 10:00:00 18.9 3 Sur 10 Sur 0 -- -- 24
2020-08-30 09:00:00 17.6 5 Este 9 Nordeste 0 -- -- 27
2020-08-30 08:00:00 17 5 Este 10 Nordeste 0 -- -- 28
2020-08-30 07:00:00 16.9 7 Nordeste 10 Nordeste 0 -- -- 28
2020-08-30 06:00:00 17.3 2 Nordeste 7 Este 0 -- -- 23
2020-08-30 05:00:00 17.1 0 Calma 5 Nordeste 0 -- -- 23
2020-08-30 04:00:00 18.1 3 Sur 6 Sudeste 0 -- -- 21
2020-08-30 03:00:00 18.5 3 Sur 8 Noroeste 0 -- -- 21
2020-08-30 02:00:00 19.3 3 Noroeste 8 Oeste 0 -- -- 19
2020-08-30 01:00:00 19.9 3 Sur 16 Norte 0 -- -- 18
2020-08-30 00:00:00 21.6 9 Norte 27 Noroeste 0 -- -- 16
2020-08-29 23:00:00 22.7 16 Noroeste 27 Noroeste 0 -- -- 13
2020-08-29 22:00:00 23.6 18 Noroeste 28 Noroeste 0 -- -- 13
2020-08-29 21:00:00 24.8 16 Norte 26 Noroeste 0 -- -- 12
2020-08-29 20:00:00 26.4 10 Noroeste 22 Noroeste 0 -- -- 13
2020-08-29 19:00:00 26.8 17 Noroeste 28 Noroeste 0 -- -- 11
2020-08-29 18:00:00 27 17 Noroeste 30 Oeste 0 -- -- 10
2020-08-29 17:00:00 25.7 17 Noroeste 36 Noroeste 0 -- -- 11
2020-08-29 16:00:00 25.4 15 Noroeste 38 Oeste 0 -- -- 12
2020-08-29 15:00:00 24.3 18 Oeste 35 Oeste 0 -- -- 13
2020-08-29 14:00:00 22.9 18 Noroeste 36 Noroeste 0 -- -- 24
2020-08-29 13:00:00 22.8 13 Oeste 25 Oeste 0 -- -- 24
2020-08-29 12:00:00 20.7 9 Noroeste 27 Oeste 0 -- -- 32
2020-08-29 11:00:00 19.2 14 Oeste 22 Oeste 0 -- -- 36
2020-08-29 10:00:00 17.8 12 Oeste 24 Oeste 0 -- -- 40
2020-08-29 09:00:00 17.2 8 Noroeste 17 Oeste 0 -- -- 40
2020-08-29 08:00:00 15.6 5 Oeste 13 Oeste 0 -- -- 40
2020-08-29 07:00:00 16.8 6 Noroeste 22 Oeste 0 -- -- 35
2020-08-29 06:00:00 17.9 9 Oeste 19 Noroeste 0 -- -- 30
2020-08-29 05:00:00 19.3 15 Oeste 21 Oeste 0 -- -- 24
2020-08-29 04:00:00 19.5 12 Oeste 21 Oeste 0 -- -- 25
2020-08-29 03:00:00 20.8 13 Oeste 21 Sudoeste 0 -- -- 25
2020-08-29 02:00:00 22.5 15 Sudoeste 25 Oeste 0 -- -- 31
2020-08-29 01:00:00 23.8 15 Sudoeste 23 Oeste 0 -- -- 35
2020-08-29 00:00:00 25.1 14 Oeste 29 Sudoeste 0 -- -- 36
2020-08-28 23:00:00 26.3 21 Sudoeste 33 Sudoeste 0 -- -- 36
2020-08-28 22:00:00 27.1 22 Sudoeste 36 Oeste 0 -- -- 37
2020-08-28 21:00:00 28.8 21 Sudoeste 40 Oeste 0 -- -- 31
2020-08-28 20:00:00 31.5 19 Oeste 35 Oeste 0 -- -- 22
2020-08-28 19:00:00 32 17 Oeste 34 Oeste 0 -- -- 21
2020-08-28 18:00:00 32 17 Oeste 34 Oeste 0 -- -- 21
2020-08-28 17:00:00 32.3 20 Noroeste 32 Noroeste 0 -- -- 21
2020-08-28 16:00:00 31.9 20 Oeste 37 Noroeste 0 -- -- 23
2020-08-28 15:00:00 30.7 19 Noroeste 35 Oeste 0 -- -- 27
2020-08-28 14:00:00 30.6 13 Noroeste 26 Oeste 0 -- -- 23
2020-08-28 13:00:00 29.6 8 Noroeste 19 Oeste 0 -- -- 28
2020-08-28 12:00:00 27.7 10 Oeste 21 Oeste 0 -- -- 33
2020-08-28 11:00:00 25.5 9 Noroeste 17 Noroeste 0 -- -- 37
2020-08-28 10:00:00 24.1 11 Noroeste 16 Noroeste 0 -- -- 37
2020-08-28 09:00:00 23.4 4 Nordeste 9 Este 0 -- -- 36
2020-08-28 08:00:00 22.5 8 Este 13 Sur 0 -- -- 34
2020-08-28 07:00:00 23.3 10 Sur 14 Sur 0 -- -- 32
2020-08-28 06:00:00 23.7 5 Sur 10 Sur 0 -- -- 30
2020-08-28 05:00:00 24.8 3 Sudeste 9 Sur 0 -- -- 27
2020-08-28 04:00:00 24.9 6 Sur 11 Sur 0 -- -- 27
2020-08-28 03:00:00 25.5 10 Sur 14 Sur 0 -- -- 26
2020-08-28 02:00:00 25.8 10 Sur 14 Sur 0 -- -- 24
2020-08-28 01:00:00 26.4 10 Sur 21 Sur 0 -- -- 22
2020-08-28 00:00:00 27.8 18 Sur 23 Sur 0 -- -- 19